Time;durP1;ratioP1;P1;durP2;ratioP2;P2;SDS_P1;SDS_P2;PMS_P1;PMS_P2;Temp;Humidity;BMP_temperature;BMP_pressure;BME280_temperature;BME280_humidity;BME280_pressure;Samples;Min_cycle;Max_cycle;Signal;HPM_P1;HPM_P2
2023/04/01 00:00:31;;;;;;;3.92;3.38;;;;;;;;;;4924155;29;20024;-82
2023/04/01 00:03:00;;;;;;;5.20;3.63;;;;;;;;;;4925798;29;20027;-81
2023/04/01 00:05:29;;;;;;;3.65;3.30;;;;;;;;;;4937370;29;20455;-83
2023/04/01 00:08:00;;;;;;;4.40;4.00;;;;;;;;;;4933140;29;20028;-82
2023/04/01 00:10:33;;;;;;;4.90;3.90;;;;;;;;;;4933145;29;20044;-82
2023/04/01 00:13:01;;;;;;;5.35;3.60;;;;;;;;;;4926663;29;20064;-83
2023/04/01 00:15:28;;;;;;;5.15;3.92;;;;;;;;;;4930401;29;20035;-81
2023/04/01 00:17:54;;;;;;;4.50;3.80;;;;;;;;;;4928574;29;20035;-82
2023/04/01 00:20:22;;;;;;;5.03;3.58;;;;;;;;;;4931249;29;20032;-81
2023/04/01 00:22:57;;;;;;;4.95;3.50;;;;;;;;;;4932983;29;20087;-81
2023/04/01 00:25:26;;;;;;;3.65;3.30;;;;;;;;;;4930698;29;20037;-83
2023/04/01 00:27:55;;;;;;;4.75;3.50;;;;;;;;;;4928673;29;20032;-83
2023/04/01 00:30:31;;;;;;;4.28;3.35;;;;;;;;;;4933431;29;20056;-81
2023/04/01 00:32:59;;;;;;;4.20;3.47;;;;;;;;;;4926465;29;20036;-82
2023/04/01 00:35:32;;;;;;;4.80;3.27;;;;;;;;;;4928963;29;20068;-81
2023/04/01 00:38:01;;;;;;;3.10;2.80;;;;;;;;;;4911953;29;20066;-82
2023/04/01 00:40:33;;;;;;;4.10;3.35;;;;;;;;;;4931289;29;20043;-82
2023/04/01 00:43:02;;;;;;;5.00;3.30;;;;;;;;;;4929375;29;20031;-82
2023/04/01 00:45:34;;;;;;;4.38;3.25;;;;;;;;;;4929571;29;20055;-82
2023/04/01 00:48:09;;;;;;;5.43;3.38;;;;;;;;;;4918508;29;20561;-82
2023/04/01 00:50:39;;;;;;;5.18;3.85;;;;;;;;;;4934519;29;20354;-83
2023/04/01 00:53:09;;;;;;;3.70;2.95;;;;;;;;;;4931811;29;20048;-84
2023/04/01 00:55:44;;;;;;;5.45;3.45;;;;;;;;;;4935980;29;20032;-84
2023/04/01 00:58:10;;;;;;;;;;;;;;;;;;4932176;29;20028;-82
2023/04/01 01:00:36;;;;;;;;;;;;;;;;;;4927553;29;19903;-85
2023/04/01 01:03:02;;;;;;;;;;;;;;;;;;4930145;29;19895;-83
2023/04/01 01:05:28;;;;;;;;;;;;;;;;;;4931809;29;19910;-85
2023/04/01 01:08:16;;;;;;;4.03;2.78;;;;;;;;;;4924949;29;19899;-84
2023/04/01 01:10:50;;;;;;;3.13;2.80;;;;;;;;;;4938304;29;20103;-81
2023/04/01 01:13:22;;;;;;;3.47;2.90;;;;;;;;;;4940060;29;20031;-82
2023/04/01 01:15:53;;;;;;;4.95;2.70;;;;;;;;;;4931763;29;20021;-82
2023/04/01 01:18:29;;;;;;;4.22;2.58;;;;;;;;;;4940346;29;20035;-82
2023/04/01 01:21:11;;;;;;;3.10;2.75;;;;;;;;;;4929249;29;20028;-85
2023/04/01 01:23:56;;;;;;;6.63;2.50;;;;;;;;;;4939437;29;20088;-82
2023/04/01 01:26:43;;;;;;;3.73;2.63;;;;;;;;;;4956823;29;20055;-82
2023/04/01 01:29:28;;;;;;;4.03;2.60;;;;;;;;;;4914805;29;20032;-81
2023/04/01 01:32:12;;;;;;;5.03;3.13;;;;;;;;;;4955285;29;20087;-82
2023/04/01 01:35:13;;;;;;;4.20;3.22;;;;;;;;;;4954330;29;20036;-83
2023/04/01 01:37:43;;;;;;;5.75;3.50;;;;;;;;;;4866392;29;20046;-84
2023/04/01 01:40:11;;;;;;;4.32;3.28;;;;;;;;;;4889771;29;20087;-82
2023/04/01 01:42:39;;;;;;;6.18;3.10;;;;;;;;;;4937406;29;20020;-83
2023/04/01 01:45:07;;;;;;;4.90;3.17;;;;;;;;;;4940330;29;20035;-83
2023/04/01 01:47:35;;;;;;;4.10;3.10;;;;;;;;;;4959084;29;20012;-82
2023/04/01 01:50:03;;;;;;;4.75;3.17;;;;;;;;;;4954635;29;20028;-82
2023/04/01 01:52:29;;;;;;;4.38;3.20;;;;;;;;;;4942064;29;20039;-81
2023/04/01 01:54:56;;;;;;;5.43;3.88;;;;;;;;;;4955190;29;20059;-82
2023/04/01 01:57:41;;;;;;;4.07;3.60;;;;;;;;;;4962526;29;20027;-87
2023/04/01 02:00:15;;;;;;;5.70;3.20;;;;;;;;;;4946965;29;20032;-84
2023/04/01 02:05:23;;;;;;;6.93;3.35;;;;;;;;;;5572814;23;20052;-83
2023/04/01 02:07:54;;;;;;;4.00;3.15;;;;;;;;;;4941785;29;20040;-84
2023/04/01 02:10:22;;;;;;;3.72;3.33;;;;;;;;;;4935096;29;20111;-82
2023/04/01 02:12:51;;;;;;;4.60;3.28;;;;;;;;;;4944924;29;20031;-85
2023/04/01 02:15:21;;;;;;;4.35;3.10;;;;;;;;;;4955309;29;20059;-83
2023/04/01 02:17:50;;;;;;;4.18;3.55;;;;;;;;;;4936349;29;20039;-82
2023/04/01 02:20:23;;;;;;;6.05;3.47;;;;;;;;;;4942993;29;20031;-81
2023/04/01 02:23:07;;;;;;;3.78;3.05;;;;;;;;;;4946572;29;20036;-82
2023/04/01 02:25:43;;;;;;;6.65;3.13;;;;;;;;;;4951839;29;20028;-82
2023/04/01 02:28:12;;;;;;;;;;;;;;;;;;4928558;29;20127;-81
2023/04/01 02:30:42;;;;;;;5.72;3.30;;;;;;;;;;4951044;29;19914;-80
2023/04/01 02:33:08;;;;;;;5.15;3.67;;;;;;;;;;4935139;29;20052;-82
2023/04/01 02:35:36;;;;;;;6.90;3.47;;;;;;;;;;4932934;29;20028;-83
2023/04/01 02:38:05;;;;;;;13.70;3.35;;;;;;;;;;4951991;29;20027;-82
2023/04/01 02:40:41;;;;;;;4.18;3.00;;;;;;;;;;4940219;29;20023;-82
2023/04/01 02:43:08;;;;;;;3.92;3.10;;;;;;;;;;4961995;28;20032;-83
2023/04/01 02:45:34;;;;;;;3.90;3.20;;;;;;;;;;4960373;29;20020;-83
2023/04/01 02:48:00;;;;;;;5.80;3.50;;;;;;;;;;4938985;29;20034;-85
2023/04/01 02:53:11;;;;;;;3.75;2.97;;;;;;;;;;4955723;23;20063;-84
2023/04/01 02:55:45;;;;;;;5.00;3.28;;;;;;;;;;4929745;29;20028;-83
2023/04/01 02:58:16;;;;;;;3.63;2.80;;;;;;;;;;4921256;29;20036;-84
2023/04/01 03:00:49;;;;;;;3.92;3.20;;;;;;;;;;4939859;29;20019;-84
2023/04/01 03:03:18;;;;;;;3.92;3.10;;;;;;;;;;4920794;29;20039;-82
2023/04/01 03:05:55;;;;;;;6.90;3.38;;;;;;;;;;4937809;29;20072;-82
2023/04/01 03:08:21;;;;;;;4.10;3.05;;;;;;;;;;4926484;29;20029;-83
2023/04/01 03:10:50;;;;;;;4.50;3.30;;;;;;;;;;4922820;29;20262;-82
2023/04/01 03:13:24;;;;;;;5.18;3.35;;;;;;;;;;4917487;29;20025;-81
2023/04/01 03:15:53;;;;;;;4.35;2.85;;;;;;;;;;4927505;29;20019;-82
2023/04/01 03:18:28;;;;;;;3.78;2.90;;;;;;;;;;4935081;29;20028;-84
2023/04/01 03:21:00;;;;;;;4.15;3.20;;;;;;;;;;4933243;29;20033;-83
2023/04/01 03:23:27;;;;;;;5.63;3.20;;;;;;;;;;4913708;29;20032;-82
2023/04/01 03:25:58;;;;;;;4.15;3.00;;;;;;;;;;4918536;29;20025;-81
2023/04/01 03:28:31;;;;;;;5.47;3.38;;;;;;;;;;4936364;29;20056;-83
2023/04/01 03:31:00;;;;;;;4.53;2.90;;;;;;;;;;4934724;29;20027;-80
2023/04/01 03:33:32;;;;;;;4.07;2.95;;;;;;;;;;4932951;29;20040;-81
2023/04/01 03:36:03;;;;;;;2.97;2.45;;;;;;;;;;4928363;29;20052;-82
2023/04/01 03:38:36;;;;;;;5.82;3.15;;;;;;;;;;4918216;29;20052;-81
2023/04/01 03:41:05;;;;;;;5.43;3.13;;;;;;;;;;4922399;29;20069;-81
2023/04/01 03:43:37;;;;;;;4.53;2.70;;;;;;;;;;4910722;29;20060;-80
2023/04/01 03:46:12;;;;;;;4.55;2.85;;;;;;;;;;4917259;29;20058;-82
2023/04/01 03:48:42;;;;;;;4.78;2.80;;;;;;;;;;4929910;29;20031;-82
2023/04/01 03:51:11;;;;;;;3.15;2.55;;;;;;;;;;4932307;29;20104;-83
2023/04/01 03:53:42;;;;;;;5.85;2.90;;;;;;;;;;4922501;29;20064;-82
2023/04/01 03:56:16;;;;;;;4.43;2.90;;;;;;;;;;4921500;29;20016;-83
2023/04/01 03:58:44;;;;;;;3.38;2.67;;;;;;;;;;4933982;29;20092;-84
2023/04/01 04:01:18;;;;;;;4.57;2.83;;;;;;;;;;4948143;29;20035;-86
2023/04/01 04:03:49;;;;;;;4.45;2.78;;;;;;;;;;4927112;29;20016;-84
2023/04/01 04:06:19;;;;;;;3.22;2.63;;;;;;;;;;4925564;29;20031;-85
2023/04/01 04:08:50;;;;;;;4.43;2.90;;;;;;;;;;4922436;29;20107;-82
2023/04/01 04:11:22;;;;;;;4.60;3.00;;;;;;;;;;4923185;29;20024;-84
2023/04/01 04:13:52;;;;;;;7.78;2.85;;;;;;;;;;4919495;29;20032;-83
2023/04/01 04:16:20;;;;;;;3.92;2.60;;;;;;;;;;4930483;29;20035;-83
2023/04/01 04:18:46;;;;;;;4.18;2.80;;;;;;;;;;4936048;29;20047;-82
2023/04/01 04:21:13;;;;;;;4.75;2.78;;;;;;;;;;4925869;29;20016;-84
2023/04/01 04:23:43;;;;;;;3.88;2.22;;;;;;;;;;4927580;29;20020;-85
2023/04/01 04:26:16;;;;;;;2.88;2.28;;;;;;;;;;4941263;29;20027;-87
2023/04/01 04:28:45;;;;;;;2.88;2.28;;;;;;;;;;4921534;29;20052;-82
2023/04/01 04:31:19;;;;;;;3.97;2.38;;;;;;;;;;4924473;29;20036;-83
2023/04/01 04:33:54;;;;;;;2.20;1.92;;;;;;;;;;4941589;29;20015;-87
2023/04/01 04:36:21;;;;;;;3.85;1.70;;;;;;;;;;4939179;29;20020;-81
2023/04/01 04:38:50;;;;;;;3.83;2.15;;;;;;;;;;4941420;29;20012;-85
2023/04/01 04:41:25;;;;;;;2.72;1.73;;;;;;;;;;4920617;29;20032;-82
2023/04/01 04:43:53;;;;;;;;;;;;;;;;;;4936825;29;20064;-83
2023/04/01 04:46:27;;;;;;;3.08;1.85;;;;;;;;;;4918003;29;19954;-83
2023/04/01 04:48:56;;;;;;;2.83;1.92;;;;;;;;;;4940408;29;20023;-83
2023/04/01 04:51:35;;;;;;;2.50;1.75;;;;;;;;;;4917343;29;20082;-82
2023/04/01 04:54:05;;;;;;;2.13;1.90;;;;;;;;;;4901860;29;20044;-82
2023/04/01 04:56:32;;;;;;;2.10;1.90;;;;;;;;;;4921550;29;20012;-85
2023/04/01 04:59:00;;;;;;;2.53;1.80;;;;;;;;;;4913510;29;20048;-86
2023/04/01 05:01:33;;;;;;;2.13;1.80;;;;;;;;;;4916662;29;20043;-82
2023/04/01 05:04:04;;;;;;;2.80;2.05;;;;;;;;;;4929348;29;20198;-85
2023/04/01 05:06:36;;;;;;;2.05;1.85;;;;;;;;;;4904582;29;20009;-84
2023/04/01 05:09:08;;;;;;;2.88;1.77;;;;;;;;;;4903544;29;20037;-84
2023/04/01 05:11:37;;;;;;;2.28;1.83;;;;;;;;;;4917459;29;20039;-84
2023/04/01 05:14:13;;;;;;;3.53;2.05;;;;;;;;;;4899839;29;20028;-84
2023/04/01 05:16:42;;;;;;;3.72;2.15;;;;;;;;;;4906299;29;20112;-82
2023/04/01 05:19:11;;;;;;;3.42;2.20;;;;;;;;;;4898871;29;20028;-83
2023/04/01 05:21:37;;;;;;;3.28;2.17;;;;;;;;;;4900677;29;20036;-85
2023/04/01 05:24:03;;;;;;;2.70;2.45;;;;;;;;;;4903237;29;20032;-84
2023/04/01 05:26:30;;;;;;;6.07;2.53;;;;;;;;;;4929746;29;20039;-82
2023/04/01 05:28:56;;;;;;;3.80;2.50;;;;;;;;;;4905129;29;20020;-83
2023/04/01 05:31:23;;;;;;;9.10;2.60;;;;;;;;;;4898019;29;20057;-81
2023/04/01 05:33:50;;;;;;;2.58;2.10;;;;;;;;;;4907860;29;20021;-87
2023/04/01 05:36:25;;;;;;;3.88;2.30;;;;;;;;;;4920590;29;20061;-84
2023/04/01 05:38:57;;;;;;;3.63;2.28;;;;;;;;;;4922338;29;20044;-85
2023/04/01 05:41:23;;;;;;;3.88;2.40;;;;;;;;;;4909645;29;20047;-84
2023/04/01 05:43:51;;;;;;;3.03;2.55;;;;;;;;;;4904050;29;20044;-83
2023/04/01 05:46:18;;;;;;;4.22;2.38;;;;;;;;;;4900862;29;20020;-83
2023/04/01 05:48:44;;;;;;;7.32;2.60;;;;;;;;;;4908315;29;20029;-81
2023/04/01 05:51:14;;;;;;;3.08;2.15;;;;;;;;;;4915852;29;20059;-80
2023/04/01 05:53:46;;;;;;;3.42;2.25;;;;;;;;;;4927609;29;20038;-86
2023/04/01 05:56:15;;;;;;;4.07;2.80;;;;;;;;;;4952263;29;20047;-84
2023/04/01 05:58:51;;;;;;;6.38;2.88;;;;;;;;;;4937100;29;20033;-83
2023/04/01 06:01:20;;;;;;;4.93;2.53;;;;;;;;;;4916376;29;20065;-83
2023/04/01 06:03:53;;;;;;;4.10;2.28;;;;;;;;;;4934670;29;20024;-84
2023/04/01 06:06:26;;;;;;;3.83;2.53;;;;;;;;;;4920561;29;20076;-83
2023/04/01 06:08:53;;;;;;;2.78;2.15;;;;;;;;;;4937232;29;20028;-82
2023/04/01 06:11:25;;;;;;;3.80;2.50;;;;;;;;;;4921824;29;20025;-82
2023/04/01 06:14:03;;;;;;;4.95;2.50;;;;;;;;;;4934543;29;20045;-82
2023/04/01 06:16:39;;;;;;;3.03;2.20;;;;;;;;;;4913028;29;20064;-84
2023/04/01 06:19:18;;;;;;;3.53;2.13;;;;;;;;;;4913944;29;20039;-83
2023/04/01 06:22:03;;;;;;;3.25;2.20;;;;;;;;;;4929344;29;20076;-82
2023/04/01 06:25:07;;;;;;;3.00;2.00;;;;;;;;;;4925989;29;20040;-80
2023/04/01 06:27:36;;;;;;;2.63;1.95;;;;;;;;;;4880156;29;20060;-81
2023/04/01 06:30:22;;;;;;;2.40;1.90;;;;;;;;;;4878345;29;20042;-82
2023/04/01 06:32:57;;;;;;;2.22;1.80;;;;;;;;;;4898197;29;20088;-83
2023/04/01 06:35:36;;;;;;;3.05;2.00;;;;;;;;;;4917296;29;20020;-82
2023/04/01 06:38:17;;;;;;;2.92;2.17;;;;;;;;;;4924942;29;20033;-83
2023/04/01 06:40:46;;;;;;;3.75;2.00;;;;;;;;;;4935132;29;20035;-81
2023/04/01 06:43:17;;;;;;;2.20;1.80;;;;;;;;;;4923773;29;20024;-81
2023/04/01 06:45:46;;;;;;;2.00;1.80;;;;;;;;;;4914104;29;20466;-81
2023/04/01 06:48:32;;;;;;;2.40;1.90;;;;;;;;;;4927436;29;20021;-81
2023/04/01 06:51:25;;;;;;;2.30;2.10;;;;;;;;;;4903375;29;20040;-80
2023/04/01 06:54:03;;;;;;;1.80;1.70;;;;;;;;;;4904478;29;20040;-80
2023/04/01 06:56:33;;;;;;;25.25;2.45;;;;;;;;;;4925714;29;20451;-80
2023/04/01 06:59:05;;;;;;;2.58;2.20;;;;;;;;;;4922773;29;20171;-79
2023/04/01 07:01:48;;;;;;;2.08;1.60;;;;;;;;;;4918608;29;20097;-83
2023/04/01 07:04:17;;;;;;;2.85;1.75;;;;;;;;;;4923976;29;20498;-82
2023/04/01 07:07:03;;;;;;;3.33;1.83;;;;;;;;;;4928394;29;20028;-83
2023/04/01 07:09:33;;;;;;;1.90;1.80;;;;;;;;;;4943791;29;20125;-85
2023/04/01 07:12:01;;;;;;;1.80;1.70;;;;;;;;;;4927910;29;20066;-82
2023/04/01 07:14:48;;;;;;;2.63;1.83;;;;;;;;;;4913793;29;20032;-82
2023/04/01 07:17:16;;;;;;;2.72;1.90;;;;;;;;;;4915821;29;20032;-84
2023/04/01 07:19:49;;;;;;;2.45;1.85;;;;;;;;;;4922006;29;20040;-83
2023/04/01 07:22:21;;;;;;;4.05;2.28;;;;;;;;;;4921760;29;20035;-82
2023/04/01 07:24:48;;;;;;;2.78;2.03;;;;;;;;;;4939571;29;20020;-83
2023/04/01 07:27:17;;;;;;;4.07;2.53;;;;;;;;;;4921511;29;20032;-83
2023/04/01 07:29:48;;;;;;;2.90;2.50;;;;;;;;;;4931836;29;20020;-82
2023/04/01 07:32:21;;;;;;;5.03;2.63;;;;;;;;;;4917806;29;20028;-82
2023/04/01 07:34:53;;;;;;;3.33;2.40;;;;;;;;;;4930339;29;20031;-83
2023/04/01 07:37:38;;;;;;;3.55;2.13;;;;;;;;;;4918668;29;20047;-81
2023/04/01 07:40:04;;;;;;;3.00;2.20;;;;;;;;;;4941642;29;20051;-87
2023/04/01 07:42:39;;;;;;;2.90;2.40;;;;;;;;;;4941350;29;20237;-86
2023/04/01 07:45:25;;;;;;;3.60;2.67;;;;;;;;;;4932557;29;20064;-85
2023/04/01 07:48:27;;;;;;;6.15;3.33;;;;;;;;;;4945630;29;20029;-84
2023/04/01 07:51:14;;;;;;;7.00;3.50;;;;;;;;;;4895762;29;20040;-82
2023/04/01 07:53:49;;;;;;;6.38;3.95;;;;;;;;;;4924270;29;20055;-82
2023/04/01 07:56:18;;;;;;;8.37;4.53;;;;;;;;;;4920440;29;20099;-82
2023/04/01 07:58:49;;;;;;;4.93;3.28;;;;;;;;;;4931565;29;20279;-84
2023/04/01 08:01:21;;;;;;;8.63;5.18;;;;;;;;;;4940425;29;20019;-84
2023/04/01 08:03:50;;;;;;;7.95;5.28;;;;;;;;;;4937781;29;20019;-85
2023/04/01 08:06:28;;;;;;;6.22;3.40;;;;;;;;;;4933147;29;20064;-91
2023/04/01 08:09:10;;;;;;;2.78;2.40;;;;;;;;;;4933104;29;20048;-87
2023/04/01 08:12:10;;;;;;;3.20;2.10;;;;;;;;;;4931100;29;20032;-89
2023/04/01 08:17:45;;;;;;;2.65;2.00;;;;;;;;;;5514343;23;20120;-87
2023/04/01 08:25:40;;;;;;;2.13;1.90;;;;;;;;;;5675732;23;20040;-83
2023/04/01 08:36:04;;;;;;;3.60;2.08;;;;;;;;;;4964136;23;20151;-82
2023/04/01 09:11:46;;;;;;;1.33;1.30;;;;;;;;;;5593469;23;20044;-84
2023/04/01 09:17:16;;;;;;;1.40;1.30;;;;;;;;;;5863260;23;20046;-93
2023/04/01 09:25:54;;;;;;;1.60;1.50;;;;;;;;;;5610577;23;20086;-84
2023/04/01 09:34:20;;;;;;;1.50;1.40;;;;;;;;;;5353757;23;20031;-80
2023/04/01 09:37:05;;;;;;;1.20;1.20;;;;;;;;;;5377518;23;20039;-82
2023/04/01 09:39:38;;;;;;;1.50;1.40;;;;;;;;;;4952284;28;20099;-83
2023/04/01 09:47:25;;;;;;;1.38;1.27;;;;;;;;;;5342056;23;20066;-81
2023/04/01 09:55:13;;;;;;;1.30;1.30;;;;;;;;;;5031105;23;20055;-82
2023/04/01 09:57:54;;;;;;;2.40;1.48;;;;;;;;;;4920766;29;20039;-80
2023/04/01 10:06:05;;;;;;;2.33;1.75;;;;;;;;;;5046619;23;20065;-82
2023/04/01 10:08:34;;;;;;;3.00;1.50;;;;;;;;;;4912984;29;20068;-81
2023/04/01 10:11:20;;;;;;;2.00;1.65;;;;;;;;;;5140523;23;20075;-83
2023/04/01 10:14:11;;;;;;;1.87;1.60;;;;;;;;;;4936265;29;20118;-82
2023/04/01 10:19:31;;;;;;;1.85;1.75;;;;;;;;;;4992990;23;20052;-79
2023/04/01 10:21:57;;;;;;;2.22;1.60;;;;;;;;;;4955254;28;20027;-83
2023/04/01 10:24:30;;;;;;;1.58;1.48;;;;;;;;;;4935396;29;20048;-82
2023/04/01 10:27:17;;;;;;;2.33;2.03;;;;;;;;;;4940658;29;20036;-83
2023/04/01 10:30:05;;;;;;;2.40;2.20;;;;;;;;;;4954583;28;20044;-80
2023/04/01 10:32:47;;;;;;;3.20;2.67;;;;;;;;;;4954921;29;20258;-82
2023/04/01 10:35:39;;;;;;;3.30;3.00;;;;;;;;;;5405410;23;20068;-79
2023/04/01 10:38:28;;;;;;;3.15;2.45;;;;;;;;;;4904697;29;20033;-81
2023/04/01 10:43:46;;;;;;;3.08;2.38;;;;;;;;;;5081517;23;20069;-83
2023/04/01 10:46:12;;;;;;;5.78;2.78;;;;;;;;;;4912671;29;20020;-81
2023/04/01 10:48:57;;;;;;;3.80;2.70;;;;;;;;;;4931010;29;20036;-80
2023/04/01 10:51:42;;;;;;;3.17;2.60;;;;;;;;;;4912692;29;20050;-83
2023/04/01 10:54:08;;;;;;;3.50;2.70;;;;;;;;;;4922534;29;20040;-81
2023/04/01 10:56:56;;;;;;;5.63;3.05;;;;;;;;;;4906493;29;20332;-83
2023/04/01 10:59:41;;;;;;;3.22;2.92;;;;;;;;;;4928208;29;20557;-87
2023/04/01 11:02:10;;;;;;;3.35;2.83;;;;;;;;;;4921643;29;20042;-80
2023/04/01 11:04:55;;;;;;;3.75;3.03;;;;;;;;;;4907756;29;20034;-82
2023/04/01 11:07:23;;;;;;;3.35;3.05;;;;;;;;;;4910103;29;20024;-81
2023/04/01 11:10:08;;;;;;;5.13;2.75;;;;;;;;;;4908218;29;20040;-87
2023/04/01 11:12:44;;;;;;;4.50;2.70;;;;;;;;;;4903447;29;20056;-87
2023/04/01 11:15:42;;;;;;;2.70;2.40;;;;;;;;;;4919396;29;20285;-86
2023/04/01 11:18:27;;;;;;;4.13;3.35;;;;;;;;;;4846088;29;20048;-84
2023/04/01 11:21:05;;;;;;;4.40;2.70;;;;;;;;;;4894651;29;20142;-89
2023/04/01 11:23:31;;;;;;;4.45;2.80;;;;;;;;;;4902546;29;20046;-83
2023/04/01 11:26:05;;;;;;;3.15;2.42;;;;;;;;;;4914502;29;20395;-88
2023/04/01 11:28:34;;;;;;;3.22;2.67;;;;;;;;;;4917419;29;20028;-87
2023/04/01 11:31:10;;;;;;;2.88;2.53;;;;;;;;;;4912647;29;20393;-88
2023/04/01 11:33:39;;;;;;;2.95;2.42;;;;;;;;;;4897775;29;20032;-82
2023/04/01 11:36:14;;;;;;;3.20;2.47;;;;;;;;;;4899080;29;20562;-88
2023/04/01 11:39:01;;;;;;;2.30;2.10;;;;;;;;;;4914213;29;20029;-89
2023/04/01 11:41:50;;;;;;;2.83;2.03;;;;;;;;;;4890795;29;20088;-82
2023/04/01 11:44:18;;;;;;;3.22;2.20;;;;;;;;;;4916307;29;20048;-87
2023/04/01 11:47:03;;;;;;;2.67;2.38;;;;;;;;;;4917863;29;20095;-86
2023/04/01 11:49:50;;;;;;;2.20;2.00;;;;;;;;;;4897759;29;20195;-81
2023/04/01 11:52:22;;;;;;;3.40;2.08;;;;;;;;;;4905837;29;20048;-87
2023/04/01 11:55:07;;;;;;;2.55;1.70;;;;;;;;;;4915320;29;20036;-86
2023/04/01 11:57:36;;;;;;;2.72;1.80;;;;;;;;;;4914947;29;20592;-85
2023/04/01 12:00:07;;;;;;;1.58;1.40;;;;;;;;;;4900743;29;20070;-89
2023/04/01 12:03:03;;;;;;;3.10;1.70;;;;;;;;;;4910886;29;20043;-87
2023/04/01 12:05:40;;;;;;;3.00;1.80;;;;;;;;;;4832601;29;20057;-86
2023/04/01 12:08:24;;;;;;;3.17;1.65;;;;;;;;;;4902631;29;20663;-88
2023/04/01 12:10:53;;;;;;;2.22;1.63;;;;;;;;;;4922944;29;20042;-87
2023/04/01 12:13:23;;;;;;;2.92;1.83;;;;;;;;;;4916190;29;20680;-87
2023/04/01 12:16:07;;;;;;;2.60;1.88;;;;;;;;;;4907704;29;20028;-83
2023/04/01 12:18:37;;;;;;;2.65;2.03;;;;;;;;;;4919319;29;20012;-85
2023/04/01 12:21:03;;;;;;;2.70;2.20;;;;;;;;;;4902151;29;20055;-84
2023/04/01 12:23:48;;;;;;;3.45;2.05;;;;;;;;;;4908056;29;20032;-87
2023/04/01 12:26:14;;;;;;;3.75;2.05;;;;;;;;;;4913813;29;20044;-86
2023/04/01 12:28:59;;;;;;;2.30;1.92;;;;;;;;;;4905159;29;20036;-84
2023/04/01 12:31:28;;;;;;;2.10;1.90;;;;;;;;;;4918103;29;20036;-85
2023/04/01 12:34:13;;;;;;;2.95;2.55;;;;;;;;;;4910986;29;20042;-82
2023/04/01 12:36:40;;;;;;;3.45;1.90;;;;;;;;;;4903988;29;20047;-83
2023/04/01 12:39:27;;;;;;;2.50;2.03;;;;;;;;;;4917574;29;20370;-84
2023/04/01 12:42:19;;;;;;;3.67;2.92;;;;;;;;;;4918522;29;20020;-87
2023/04/01 12:44:55;;;;;;;8.85;2.45;;;;;;;;;;4903526;29;20047;-81
2023/04/01 12:47:20;;;;;;;;;;;;;;;;;;4919449;29;20412;-83
2023/04/01 12:49:56;;;;;;;2.50;1.80;;;;;;;;;;4915837;29;19919;-86
2023/04/01 12:52:44;;;;;;;1.70;1.60;;;;;;;;;;4913989;29;20028;-92
2023/04/01 12:55:10;;;;;;;1.83;1.60;;;;;;;;;;4916334;29;20052;-85
2023/04/01 12:57:55;;;;;;;1.90;1.70;;;;;;;;;;4922293;29;20040;-83
2023/04/01 13:00:40;;;;;;;3.03;1.63;;;;;;;;;;4916360;29;20047;-86
2023/04/01 13:03:19;;;;;;;2.72;1.50;;;;;;;;;;4916475;29;20071;-85
2023/04/01 13:06:05;;;;;;;1.65;1.50;;;;;;;;;;4911591;29;20042;-88
2023/04/01 13:08:36;;;;;;;1.95;1.40;;;;;;;;;;4917051;29;20028;-90
2023/04/01 13:11:21;;;;;;;2.08;1.40;;;;;;;;;;4917017;29;20062;-84
2023/04/01 13:14:00;;;;;;;2.55;2.00;;;;;;;;;;4928956;29;20040;-85
2023/04/01 13:16:39;;;;;;;1.50;1.40;;;;;;;;;;4927691;29;20027;-87
2023/04/01 13:19:21;;;;;;;1.73;1.60;;;;;;;;;;4914919;29;20008;-82
2023/04/01 13:22:06;;;;;;;1.42;1.33;;;;;;;;;;4929726;29;20124;-87
2023/04/01 13:24:51;;;;;;;1.45;1.35;;;;;;;;;;4927936;29;20508;-87
2023/04/01 13:27:22;;;;;;;1.63;1.52;;;;;;;;;;4919629;29;20038;-89
2023/04/01 13:29:49;;;;;;;1.80;1.67;;;;;;;;;;4910846;29;20071;-88
2023/04/01 13:32:33;;;;;;;1.20;1.20;;;;;;;;;;4929633;29;20075;-83
2023/04/01 13:35:17;;;;;;;1.38;1.27;;;;;;;;;;4913721;29;20069;-82
2023/04/01 13:37:43;;;;;;;3.45;1.60;;;;;;;;;;4916764;29;20055;-85
2023/04/01 13:40:16;;;;;;;1.83;1.65;;;;;;;;;;4911887;29;20036;-88
2023/04/01 13:42:59;;;;;;;2.88;1.80;;;;;;;;;;4922706;29;20789;-85
2023/04/01 13:45:39;;;;;;;2.33;1.90;;;;;;;;;;4915601;29;20033;-83
2023/04/01 13:48:05;;;;;;;3.70;1.85;;;;;;;;;;4926234;29;20020;-84
2023/04/01 13:50:36;;;;;;;3.20;2.00;;;;;;;;;;4913374;29;20075;-82
2023/04/01 13:53:08;;;;;;;1.98;1.77;;;;;;;;;;4933647;29;20828;-87
2023/04/01 13:55:50;;;;;;;1.88;1.70;;;;;;;;;;4921870;29;20047;-87
2023/04/01 13:58:36;;;;;;;1.60;1.48;;;;;;;;;;4918811;29;20082;-85
2023/04/01 14:01:15;;;;;;;2.28;1.80;;;;;;;;;;4928116;29;20477;-91
2023/04/01 14:03:56;;;;;;;2.83;1.83;;;;;;;;;;4912017;29;20035;-85
2023/04/01 14:06:42;;;;;;;2.30;1.63;;;;;;;;;;4928640;29;20447;-88
2023/04/01 14:09:27;;;;;;;1.70;1.60;;;;;;;;;;4912903;29;20030;-88
2023/04/01 14:12:12;;;;;;;2.05;1.58;;;;;;;;;;4927020;29;20292;-83
2023/04/01 14:14:49;;;;;;;2.45;1.80;;;;;;;;;;4926108;29;20040;-82
2023/04/01 14:17:46;;;;;;;3.05;1.80;;;;;;;;;;4889848;29;20036;-82
2023/04/01 14:20:27;;;;;;;3.15;1.50;;;;;;;;;;4936164;29;20512;-87
2023/04/01 14:23:08;;;;;;;2.85;1.60;;;;;;;;;;4934974;29;20048;-88
2023/04/01 14:28:37;;;;;;;4.05;2.22;;;;;;;;;;5167833;23;20042;-80
2023/04/01 14:36:33;;;;;;;2.13;1.88;;;;;;;;;;5032591;23;20084;-83
2023/04/01 14:39:00;;;;;;;1.92;1.70;;;;;;;;;;5057399;23;20051;-80
2023/04/01 14:41:51;;;;;;;3.42;2.00;;;;;;;;;;4994626;23;20056;-84
2023/04/01 14:44:36;;;;;;;2.47;1.70;;;;;;;;;;4934856;29;20036;-84
2023/04/01 14:47:21;;;;;;;5.53;2.90;;;;;;;;;;4936350;29;20055;-81
2023/04/01 14:49:47;;;;;;;2.53;1.90;;;;;;;;;;4931675;29;20016;-81
2023/04/01 14:52:22;;;;;;;2.55;1.92;;;;;;;;;;4938787;29;20302;-83
2023/04/01 14:54:50;;;;;;;2.85;2.17;;;;;;;;;;4941596;29;20036;-85
2023/04/01 14:57:23;;;;;;;2.65;2.00;;;;;;;;;;4932280;29;20104;-83
2023/04/01 15:02:43;;;;;;;3.38;2.95;;;;;;;;;;4934772;23;20051;-81
2023/04/01 15:05:22;;;;;;;4.75;3.28;;;;;;;;;;4938344;28;20008;-85
2023/04/01 15:07:58;;;;;;;7.53;4.95;;;;;;;;;;4937250;29;20036;-85
2023/04/01 15:13:18;;;;;;;8.02;4.60;;;;;;;;;;5461804;23;20040;-84
2023/04/01 15:18:40;;;;;;;4.90;2.55;;;;;;;;;;5130187;23;20072;-83
2023/04/01 15:21:12;;;;;;;6.05;2.45;;;;;;;;;;5038793;23;20095;-82
2023/04/01 15:29:39;;;;;;;7.05;3.70;;;;;;;;;;4687686;23;20060;-82
2023/04/01 15:32:20;;;;;;;9.45;6.30;;;;;;;;;;4923247;29;20040;-83
2023/04/01 15:34:52;;;;;;;11.13;6.25;;;;;;;;;;4926385;29;20042;-80
2023/04/01 15:37:22;;;;;;;14.27;8.52;;;;;;;;;;4920178;29;20036;-83
2023/04/01 15:39:58;;;;;;;16.15;8.38;;;;;;;;;;4922255;29;20039;-85
2023/04/01 15:42:27;;;;;;;5.28;2.83;;;;;;;;;;4917764;29;20040;-88
2023/04/01 15:44:53;;;;;;;3.75;2.53;;;;;;;;;;4916056;29;20421;-82
2023/04/01 15:47:25;;;;;;;5.70;2.95;;;;;;;;;;4918887;29;20087;-81
2023/04/01 15:50:07;;;;;;;8.23;3.15;;;;;;;;;;4925727;29;20156;-81
2023/04/01 15:52:36;;;;;;;4.97;2.60;;;;;;;;;;4926229;29;20029;-82
2023/04/01 15:55:02;;;;;;;14.52;3.78;;;;;;;;;;4924837;29;20163;-83
2023/04/01 15:57:29;;;;;;;4.63;2.60;;;;;;;;;;4924462;29;20039;-80
2023/04/01 15:59:58;;;;;;;4.28;2.10;;;;;;;;;;4925702;29;20060;-79
2023/04/01 16:02:30;;;;;;;4.07;2.20;;;;;;;;;;4926061;29;20599;-80
2023/04/01 16:05:16;;;;;;;7.13;2.53;;;;;;;;;;4926124;29;20129;-79
2023/04/01 16:07:42;;;;;;;4.53;2.20;;;;;;;;;;4882963;29;20144;-80
2023/04/01 16:10:21;;;;;;;2.92;2.17;;;;;;;;;;4929986;29;20032;-80
2023/04/01 16:12:47;;;;;;;2.78;2.42;;;;;;;;;;4930234;29;20036;-78
2023/04/01 16:15:25;;;;;;;3.50;1.90;;;;;;;;;;4928478;29;20047;-79
2023/04/01 16:18:03;;;;;;;4.18;2.50;;;;;;;;;;4928312;29;20044;-81
2023/04/01 16:20:50;;;;;;;4.10;2.35;;;;;;;;;;4925900;29;20111;-83
2023/04/01 16:23:46;;;;;;;12.13;5.93;;;;;;;;;;4929209;29;20461;-85
2023/04/01 16:26:37;;;;;;;5.80;3.30;;;;;;;;;;4905577;29;20044;-83
2023/04/01 16:29:08;;;;;;;9.07;5.13;;;;;;;;;;4981377;23;20075;-80
2023/04/01 16:31:45;;;;;;;7.82;4.70;;;;;;;;;;4929907;29;20091;-79
2023/04/01 16:34:16;;;;;;;11.75;5.95;;;;;;;;;;4916671;29;20111;-79
2023/04/01 16:36:55;;;;;;;9.52;5.30;;;;;;;;;;4928857;29;20036;-83
2023/04/01 16:39:30;;;;;;;8.00;3.78;;;;;;;;;;4912652;29;20021;-80
2023/04/01 16:41:56;;;;;;;;;;;;;;;;;;4915171;29;20148;-82
2023/04/01 16:44:24;;;;;;;4.60;3.55;;;;;;;;;;4929714;29;19899;-80
2023/04/01 16:46:50;;;;;;;3.13;2.75;;;;;;;;;;4929056;29;20016;-78
2023/04/01 16:49:25;;;;;;;5.20;2.85;;;;;;;;;;4932625;29;20012;-78
2023/04/01 17:02:00;;;;;;;2.67;2.20;;;;;;;;;;5306967;23;20280;-85
2023/04/01 17:04:33;;;;;;;4.25;2.50;;;;;;;;;;4943731;29;20044;-86
2023/04/01 17:07:19;;;;;;;7.13;3.10;;;;;;;;;;4932034;29;20008;-85
2023/04/01 17:25:24;;;;;;;4.15;2.63;;;;;;;;;;5346868;23;20048;-84
2023/04/01 17:28:27;;;;;;;4.65;2.88;;;;;;;;;;4942285;29;20091;-87
2023/04/01 17:31:14;;;;;;;4.35;2.92;;;;;;;;;;4921727;29;20043;-85
2023/04/01 17:34:16;;;;;;;4.80;2.38;;;;;;;;;;4939197;29;20050;-82
2023/04/01 17:37:07;;;;;;;5.13;2.33;;;;;;;;;;4906997;29;20126;-81
2023/04/01 17:39:52;;;;;;;4.15;2.00;;;;;;;;;;4946713;29;20054;-82
2023/04/01 17:42:50;;;;;;;6.03;2.00;;;;;;;;;;4945094;29;20043;-82
2023/04/01 17:45:42;;;;;;;4.38;2.35;;;;;;;;;;4942937;29;20042;-82
2023/04/01 17:48:27;;;;;;;7.25;3.95;;;;;;;;;;4950058;29;20019;-84
2023/04/01 17:51:12;;;;;;;5.33;2.10;;;;;;;;;;4930410;29;20064;-82